createdAt,value
2022-12-27T00:02:23.549Z,27.85
2022-12-27T00:05:10.170Z,28.73
2022-12-27T00:07:56.534Z,28.40
2022-12-27T00:10:43.300Z,27.95
2022-12-27T00:13:28.915Z,27.95
2022-12-27T00:16:16.901Z,26.83
2022-12-27T00:19:02.988Z,28.20
2022-12-27T00:21:48.410Z,27.63
2022-12-27T00:24:35.685Z,27.77
2022-12-27T00:27:21.379Z,27.70
2022-12-27T00:30:07.483Z,26.90
2022-12-27T00:32:53.274Z,26.73
2022-12-27T00:35:39.354Z,27.15
2022-12-27T00:38:26.964Z,26.60
2022-12-27T00:41:13.429Z,27.17
2022-12-27T00:43:58.774Z,26.20
2022-12-27T00:46:44.597Z,26.05
2022-12-27T00:49:29.995Z,26.73
2022-12-27T00:52:15.663Z,24.48
2022-12-27T00:55:01.179Z,26.60
2022-12-27T00:57:47.010Z,25.73
2022-12-27T01:00:32.639Z,26.25
2022-12-27T01:03:19.366Z,26.17
2022-12-27T01:06:07.554Z,26.27
2022-12-27T01:08:53.145Z,27.55
2022-12-27T01:11:40.983Z,26.30
2022-12-27T01:14:26.618Z,27.25
2022-12-27T01:17:12.264Z,26.85
2022-12-27T01:19:57.912Z,26.05
2022-12-27T01:22:43.995Z,26.67
2022-12-27T01:25:29.558Z,26.13
2022-12-27T01:28:15.248Z,27.63
2022-12-27T01:31:09.672Z,26.33
2022-12-27T01:34:00.526Z,25.88
2022-12-27T01:36:46.179Z,26.42
2022-12-27T01:39:32.293Z,24.30
2022-12-27T01:42:38.484Z,25.85
2022-12-27T01:45:29.475Z,24.90
2022-12-27T01:48:21.015Z,26.50
2022-12-27T01:51:07.421Z,24.70
2022-12-27T01:53:53.661Z,26.77
2022-12-27T01:56:39.725Z,26.40
2022-12-27T01:59:25.815Z,26.85
2022-12-27T02:02:11.735Z,25.77
2022-12-27T02:04:58.576Z,25.35
2022-12-27T02:08:08.186Z,24.15
2022-12-27T02:10:56.145Z,24.63
2022-12-27T02:13:44.542Z,25.40
2022-12-27T02:16:30.230Z,24.20
2022-12-27T02:19:39.978Z,25.00
2022-12-27T02:23:22.245Z,25.35
2022-12-27T02:26:42.899Z,25.05
2022-12-27T02:29:59.604Z,23.85
2022-12-27T02:32:54.984Z,22.67
2022-12-27T02:35:45.621Z,25.70
2022-12-27T02:38:36.073Z,23.73
2022-12-27T02:41:40.326Z,24.52
2022-12-27T02:44:44.579Z,24.63
2022-12-27T02:47:50.343Z,24.70
2022-12-27T02:51:29.155Z,25.52
2022-12-27T02:54:49.680Z,23.15
2022-12-27T02:57:45.986Z,23.25
2022-12-27T03:01:00.961Z,23.73
2022-12-27T03:03:55.763Z,23.50
2022-12-27T03:07:07.679Z,23.63
2022-12-27T03:10:36.624Z,23.90
2022-12-27T03:13:59.456Z,24.38
2022-12-27T03:16:57.877Z,21.77
2022-12-27T03:20:05.689Z,24.08
2022-12-27T03:23:12.429Z,22.67
2022-12-27T03:26:00.918Z,23.75
2022-12-27T03:29:06.635Z,24.08
2022-12-27T03:32:16.591Z,23.10
2022-12-27T03:35:19.733Z,23.50
2022-12-27T03:38:07.116Z,23.00
2022-12-27T03:41:20.097Z,23.77
2022-12-27T03:47:31.342Z,21.50
2022-12-27T03:50:35.289Z,23.85
2022-12-27T03:56:17.228Z,22.48
2022-12-27T03:59:03.265Z,26.00
2022-12-27T04:01:48.812Z,24.05
2022-12-27T04:04:35.109Z,24.77
2022-12-27T04:07:20.359Z,24.25
2022-12-27T04:10:25.872Z,24.10
2022-12-27T04:13:29.882Z,22.80
2022-12-27T04:16:34.071Z,23.50
2022-12-27T04:19:38.225Z,23.77
2022-12-27T04:22:42.344Z,22.65
2022-12-27T04:25:46.429Z,24.05
2022-12-27T04:28:50.496Z,22.75
2022-12-27T04:31:55.141Z,22.10
2022-12-27T04:34:49.402Z,22.70
2022-12-27T04:37:35.265Z,22.15
2022-12-27T04:40:39.285Z,22.60
2022-12-27T04:43:43.462Z,23.02
2022-12-27T04:46:47.545Z,22.13
2022-12-27T04:49:53.439Z,23.13
2022-12-27T04:52:57.459Z,24.17
2022-12-27T04:55:43.088Z,24.48
2022-12-27T04:58:28.966Z,24.33
2022-12-27T05:01:33.619Z,23.30
2022-12-27T05:04:19.044Z,23.33
2022-12-27T05:07:25.687Z,22.90
2022-12-27T05:10:29.897Z,24.25
2022-12-27T05:13:33.985Z,24.15
2022-12-27T05:16:19.882Z,23.45
2022-12-27T05:19:11.440Z,24.85
2022-12-27T05:22:15.439Z,23.02
2022-12-27T05:25:20.525Z,23.35
2022-12-27T05:28:08.718Z,21.52
2022-12-27T05:30:54.576Z,21.52
2022-12-27T05:33:40.182Z,22.42
2022-12-27T05:36:26.961Z,21.52
2022-12-27T05:39:12.908Z,22.42
2022-12-27T05:41:58.557Z,21.92
2022-12-27T05:44:43.994Z,21.23
2022-12-27T05:47:29.721Z,20.88
2022-12-27T05:50:15.405Z,20.08
2022-12-27T05:53:00.916Z,19.65
2022-12-27T05:55:54.767Z,21.38
2022-12-27T06:01:25.756Z,20.48
2022-12-27T06:04:11.323Z,19.45
2022-12-27T06:06:59.262Z,18.88
2022-12-27T06:09:47.764Z,19.90
2022-12-27T06:12:33.435Z,19.48
2022-12-27T06:15:19.258Z,21.08
2022-12-27T06:18:06.664Z,19.20
2022-12-27T06:20:52.942Z,21.35
2022-12-27T06:23:41.019Z,19.70
2022-12-27T06:26:29.058Z,20.55
2022-12-27T06:29:14.507Z,19.50
2022-12-27T06:32:00.551Z,19.65
2022-12-27T06:34:46.345Z,19.73
2022-12-27T06:37:32.071Z,18.17
2022-12-27T06:40:20.843Z,17.48
2022-12-27T06:43:06.466Z,18.33
2022-12-27T06:45:57.208Z,19.92
2022-12-27T06:48:42.597Z,18.52
2022-12-27T06:51:28.194Z,18.52
2022-12-27T06:54:14.099Z,19.67
2022-12-27T06:57:00.719Z,17.48
2022-12-27T06:59:50.984Z,16.92
2022-12-27T07:02:39.973Z,16.40
2022-12-27T07:05:25.568Z,16.58
2022-12-27T07:08:11.164Z,16.08
2022-12-27T07:11:04.811Z,17.15
2022-12-27T07:13:52.585Z,16.38
2022-12-27T07:16:38.640Z,17.40
2022-12-27T07:19:24.049Z,17.23
2022-12-27T07:22:09.618Z,17.20
2022-12-27T07:24:55.304Z,15.77
2022-12-27T07:27:40.860Z,17.27
2022-12-27T07:30:26.890Z,16.48
2022-12-27T07:33:12.727Z,16.75
2022-12-27T07:36:00.291Z,16.67
2022-12-27T07:38:46.038Z,17.48
2022-12-27T07:41:31.896Z,18.08
2022-12-27T07:44:19.752Z,17.20
2022-12-27T07:47:06.751Z,16.23
2022-12-27T07:49:52.275Z,15.48
2022-12-27T07:52:37.891Z,15.25
2022-12-27T07:55:24.787Z,14.02
2022-12-27T07:58:10.352Z,14.82
2022-12-27T08:00:56.440Z,18.73
2022-12-27T08:03:42.532Z,16.73
2022-12-27T08:06:34.960Z,16.90
2022-12-27T08:09:30.901Z,18.00
2022-12-27T08:12:17.013Z,16.48
2022-12-27T08:15:04.157Z,15.32
2022-12-27T08:17:49.478Z,15.80
2022-12-27T08:20:36.110Z,15.15
2022-12-27T08:23:22.103Z,16.05
2022-12-27T08:26:08.694Z,15.43
2022-12-27T08:28:54.288Z,15.63
2022-12-27T08:31:39.802Z,16.90
2022-12-27T08:34:25.566Z,15.25
2022-12-27T08:37:11.118Z,16.42
2022-12-27T08:40:02.496Z,17.02
2022-12-27T08:42:48.702Z,14.98
2022-12-27T08:45:35.495Z,16.45
2022-12-27T08:48:21.188Z,16.20
2022-12-27T08:51:12.946Z,15.60
2022-12-27T08:54:00.611Z,15.98
2022-12-27T08:56:46.207Z,17.02
2022-12-27T08:59:31.747Z,18.92
2022-12-27T09:02:17.298Z,17.35
2022-12-27T09:05:02.520Z,17.38
2022-12-27T09:07:48.370Z,16.67
2022-12-27T09:10:33.952Z,16.02
2022-12-27T09:13:19.474Z,16.45
2022-12-27T09:16:11.032Z,16.88
2022-12-27T09:18:58.825Z,17.52
2022-12-27T09:21:44.425Z,20.45
2022-12-27T09:24:29.835Z,22.00
2022-12-27T09:27:15.573Z,22.58
2022-12-27T09:30:01.169Z,22.58
2022-12-27T09:32:48.033Z,22.35
2022-12-27T09:35:38.472Z,22.38
2022-12-27T09:38:24.846Z,22.33
2022-12-27T09:44:51.680Z,24.45
2022-12-27T09:48:04.240Z,22.83
2022-12-27T09:50:58.072Z,23.90
2022-12-27T09:57:17.909Z,22.17
2022-12-27T09:59:50.151Z,21.02
2022-12-27T10:02:35.960Z,23.00
2022-12-27T10:05:30.106Z,21.40
2022-12-27T10:08:32.082Z,22.23
2022-12-27T10:11:49.190Z,23.77
2022-12-27T10:14:49.917Z,21.95
2022-12-27T10:18:01.243Z,21.58
2022-12-27T10:20:58.716Z,21.17
2022-12-27T10:23:50.448Z,21.85
2022-12-27T10:26:38.742Z,20.65
2022-12-27T10:29:27.665Z,21.80
2022-12-27T10:32:15.975Z,19.90
2022-12-27T10:35:04.209Z,20.70
2022-12-27T10:37:50.271Z,22.02
2022-12-27T10:40:43.134Z,20.58
2022-12-27T10:43:36.555Z,20.50
2022-12-27T10:46:32.417Z,20.70
2022-12-27T10:49:28.364Z,20.98
2022-12-27T10:52:18.153Z,20.25
2022-12-27T10:55:04.005Z,19.17
2022-12-27T10:57:49.557Z,17.38
2022-12-27T11:00:35.435Z,18.33
2022-12-27T11:03:20.905Z,18.65
2022-12-27T11:06:23.707Z,18.75
2022-12-27T11:09:26.822Z,19.50
2022-12-27T11:12:32.995Z,19.00
2022-12-27T11:15:19.907Z,19.60
2022-12-27T11:18:35.286Z,20.27
2022-12-27T11:21:27.498Z,19.33
2022-12-27T11:24:17.401Z,20.08
2022-12-27T11:27:03.897Z,19.42
2022-12-27T11:29:51.535Z,19.88
2022-12-27T11:32:37.066Z,19.48
2022-12-27T11:35:23.750Z,17.25
2022-12-27T11:38:44.119Z,17.92
2022-12-27T11:41:33.117Z,17.67
2022-12-27T11:44:27.853Z,16.85
2022-12-27T11:47:33.544Z,19.13
2022-12-27T11:50:28.207Z,19.52
2022-12-27T11:53:32.071Z,19.25
2022-12-27T11:56:27.445Z,21.05
2022-12-27T11:59:41.215Z,21.77
2022-12-27T12:02:32.287Z,23.45
2022-12-27T12:05:41.855Z,22.48
2022-12-27T12:08:55.536Z,20.35
2022-12-27T12:12:06.149Z,22.52
2022-12-27T12:15:25.404Z,21.55
2022-12-27T12:18:25.396Z,20.77
2022-12-27T12:21:32.161Z,20.67
2022-12-27T12:24:26.918Z,20.02
2022-12-27T12:27:28.573Z,19.98
2022-12-27T12:30:43.286Z,20.98
2022-12-27T12:33:47.412Z,22.42
2022-12-27T12:36:32.922Z,21.60
2022-12-27T12:39:43.015Z,21.42
2022-12-27T12:42:53.488Z,21.05
2022-12-27T12:45:53.257Z,20.55
2022-12-27T12:48:41.640Z,23.13
2022-12-27T12:52:13.322Z,24.02
2022-12-27T12:55:38.085Z,23.38
2022-12-27T12:58:40.694Z,26.85
2022-12-27T13:01:55.075Z,25.73
2022-12-27T13:04:52.909Z,26.55
2022-12-27T13:08:05.947Z,27.55
2022-12-27T13:11:09.725Z,29.33
2022-12-27T13:14:23.643Z,28.13
2022-12-27T13:17:36.604Z,33.10
2022-12-27T13:20:46.716Z,35.75
2022-12-27T13:23:55.661Z,35.75
2022-12-27T13:27:00.228Z,33.83
2022-12-27T13:30:20.169Z,39.53
2022-12-27T13:33:30.344Z,39.83
2022-12-27T13:36:49.109Z,40.28
2022-12-27T13:39:43.903Z,39.20
2022-12-27T13:43:08.348Z,39.95
2022-12-27T13:46:25.867Z,41.95
2022-12-27T13:49:47.709Z,40.00
2022-12-27T13:53:04.478Z,42.88
2022-12-27T13:56:27.396Z,42.15
2022-12-27T13:59:45.817Z,43.10
2022-12-27T14:02:37.995Z,44.65
2022-12-27T14:05:35.968Z,43.72
2022-12-27T14:08:27.451Z,44.03
2022-12-27T14:11:46.787Z,44.67
2022-12-27T14:14:37.489Z,46.72
2022-12-27T14:17:36.841Z,45.03
2022-12-27T14:20:33.992Z,45.88
2022-12-27T14:23:42.270Z,46.58
2022-12-27T14:26:49.472Z,45.97
2022-12-27T14:30:09.239Z,48.78
2022-12-27T14:33:32.412Z,45.90
2022-12-27T14:36:27.049Z,46.33
2022-12-27T14:39:40.596Z,46.03
2022-12-27T14:42:43.780Z,45.58
2022-12-27T14:49:02.202Z,46.72
2022-12-27T14:52:12.712Z,49.10
2022-12-27T14:55:24.246Z,48.90
2022-12-27T14:58:36.456Z,49.45
2022-12-27T15:01:50.819Z,52.40
2022-12-27T15:08:02.439Z,50.97
2022-12-27T15:11:06.862Z,51.20
2022-12-27T15:14:20.904Z,49.53
2022-12-27T15:17:34.125Z,50.08
2022-12-27T15:20:31.613Z,49.97
2022-12-27T15:23:34.069Z,52.10
2022-12-27T15:26:39.669Z,52.08
2022-12-27T15:29:34.591Z,55.15
2022-12-27T15:32:38.735Z,51.92
2022-12-27T15:35:43.591Z,53.28
2022-12-27T15:38:41.035Z,55.22
2022-12-27T15:41:52.763Z,56.78
2022-12-27T15:45:03.401Z,57.13
2022-12-27T15:48:42.252Z,53.55
2022-12-27T15:52:01.551Z,55.35
2022-12-27T15:55:05.625Z,55.40
2022-12-27T15:58:17.606Z,54.45
2022-12-27T16:01:26.233Z,55.45
2022-12-27T16:04:46.504Z,53.85
2022-12-27T16:07:50.188Z,56.13
2022-12-27T16:10:42.207Z,54.38
2022-12-27T16:13:36.017Z,54.50
2022-12-27T16:16:27.161Z,53.35
2022-12-27T16:19:40.786Z,54.30
2022-12-27T16:25:30.375Z,54.00
2022-12-27T16:28:16.747Z,56.95
2022-12-27T16:31:07.606Z,55.85
2022-12-27T16:33:56.609Z,56.28
2022-12-27T16:36:47.773Z,55.90
2022-12-27T16:39:55.499Z,56.63
2022-12-27T16:42:53.226Z,54.00
2022-12-27T16:45:39.128Z,55.83
2022-12-27T16:49:00.202Z,53.92
2022-12-27T16:52:18.329Z,55.80
2022-12-27T16:55:18.750Z,53.80
2022-12-27T16:58:31.796Z,53.97
2022-12-27T17:01:26.655Z,53.75
2022-12-27T17:04:51.861Z,56.25
2022-12-27T17:08:10.274Z,55.20
2022-12-27T17:11:01.892Z,53.17
2022-12-27T17:13:50.972Z,54.58
2022-12-27T17:16:48.191Z,52.65
2022-12-27T17:19:39.782Z,53.55
2022-12-27T17:22:33.893Z,53.55
2022-12-27T17:25:31.071Z,57.95
2022-12-27T17:28:25.397Z,54.05
2022-12-27T17:31:38.950Z,51.85
2022-12-27T17:34:53.565Z,50.83
2022-12-27T17:38:20.788Z,54.35
2022-12-27T17:41:16.263Z,54.70
2022-12-27T17:44:40.149Z,54.38
2022-12-27T17:47:51.141Z,54.95
2022-12-27T17:50:42.326Z,54.67
2022-12-27T17:53:47.151Z,60.28
2022-12-27T17:57:02.332Z,58.67
2022-12-27T17:59:50.628Z,58.25
2022-12-27T18:02:39.146Z,54.38
2022-12-27T18:05:30.891Z,55.50
2022-12-27T18:08:28.739Z,57.03
2022-12-27T18:11:15.583Z,55.53
2022-12-27T18:14:01.614Z,53.15
2022-12-27T18:16:47.781Z,52.20
2022-12-27T18:19:33.678Z,53.95
2022-12-27T18:22:20.256Z,56.28
2022-12-27T18:25:24.476Z,54.30
2022-12-27T18:28:18.614Z,53.38
2022-12-27T18:31:16.819Z,54.13
2022-12-27T18:34:37.049Z,52.40
2022-12-27T18:37:25.668Z,50.92
2022-12-27T18:40:26.126Z,50.63
2022-12-27T18:43:18.055Z,52.60
2022-12-27T18:46:04.874Z,52.95
2022-12-27T18:48:50.698Z,53.80
2022-12-27T18:51:38.984Z,52.25
2022-12-27T18:54:34.520Z,54.08
2022-12-27T18:57:33.349Z,54.58
2022-12-27T19:00:18.883Z,55.70
2022-12-27T19:03:16.089Z,52.22
2022-12-27T19:06:12.916Z,52.55
2022-12-27T19:08:58.796Z,51.40
2022-12-27T19:12:00.192Z,53.75
2022-12-27T19:14:46.723Z,50.42
2022-12-27T19:17:32.932Z,56.70
2022-12-27T19:20:40.207Z,53.17
2022-12-27T19:23:39.751Z,52.22
2022-12-27T19:26:31.276Z,53.97
2022-12-27T19:29:20.455Z,57.60
2022-12-27T19:32:08.888Z,56.20
2022-12-27T19:34:58.255Z,57.88
2022-12-27T19:37:43.772Z,58.15
2022-12-27T19:40:29.431Z,59.20
2022-12-27T19:43:15.539Z,61.45
2022-12-27T19:46:01.524Z,64.05
2022-12-27T19:49:01.157Z,61.85
2022-12-27T19:51:55.950Z,63.33
2022-12-27T19:54:41.429Z,63.40
2022-12-27T19:57:27.240Z,63.40
2022-12-27T20:00:17.562Z,65.85
2022-12-27T20:03:04.519Z,67.75
2022-12-27T20:06:12.669Z,68.97
2022-12-27T20:08:56.519Z,68.03
2022-12-27T20:11:43.221Z,68.55
2022-12-27T20:14:28.709Z,70.85
2022-12-27T20:17:14.380Z,72.30
2022-12-27T20:20:00.201Z,75.70
2022-12-27T20:22:47.487Z,75.10
2022-12-27T20:25:36.520Z,71.90
2022-12-27T20:28:22.102Z,77.28
2022-12-27T20:31:13.771Z,72.00
2022-12-27T20:33:59.733Z,71.88
2022-12-27T20:36:45.230Z,72.95
2022-12-27T20:39:30.906Z,73.85
2022-12-27T20:42:16.548Z,70.53
2022-12-27T20:45:02.302Z,70.63
2022-12-27T20:47:48.260Z,75.43
2022-12-27T20:50:33.715Z,71.95
2022-12-27T20:53:19.339Z,71.47
2022-12-27T20:56:06.471Z,72.35
2022-12-27T20:58:52.400Z,73.43
2022-12-27T21:01:38.137Z,71.90
2022-12-27T21:04:26.818Z,74.97
2022-12-27T21:07:16.645Z,73.68
2022-12-27T21:10:02.575Z,75.88
2022-12-27T21:12:48.400Z,75.90
2022-12-27T21:15:40.391Z,72.35
2022-12-27T21:18:31.630Z,71.28
2022-12-27T21:21:20.753Z,77.00
2022-12-27T21:24:09.364Z,76.10
2022-12-27T21:26:56.733Z,74.13
2022-12-27T21:29:42.678Z,73.60
2022-12-27T21:32:28.375Z,73.70
2022-12-27T21:35:14.125Z,73.88
2022-12-27T21:37:59.997Z,72.45
2022-12-27T21:41:01.970Z,75.72
2022-12-27T21:43:49.151Z,74.38
2022-12-27T21:46:40.533Z,72.40
2022-12-27T21:49:26.167Z,73.63
2022-12-27T21:52:13.894Z,76.50
2022-12-27T21:54:59.580Z,71.43
2022-12-27T21:57:45.285Z,74.82
2022-12-27T22:00:30.931Z,73.22
2022-12-27T22:03:16.537Z,80.47
2022-12-27T22:06:14.182Z,76.82
2022-12-27T22:09:02.597Z,74.75
2022-12-27T22:11:49.654Z,73.05
2022-12-27T22:14:37.021Z,73.35
2022-12-27T22:17:22.772Z,73.28
2022-12-27T22:20:09.966Z,74.97
2022-12-27T22:22:55.664Z,73.97
2022-12-27T22:25:42.550Z,76.78
2022-12-27T22:28:28.006Z,75.03
2022-12-27T22:31:16.623Z,77.93
2022-12-27T22:34:04.334Z,80.80
2022-12-27T22:36:53.217Z,75.28
2022-12-27T22:39:38.765Z,72.32
2022-12-27T22:42:24.375Z,73.18
2022-12-27T22:45:10.837Z,70.25
2022-12-27T22:47:56.397Z,68.40
2022-12-27T22:50:41.995Z,71.45
2022-12-27T22:53:27.619Z,69.90
2022-12-27T22:56:24.055Z,72.70
2022-12-27T22:59:14.010Z,73.60
2022-12-27T23:01:59.560Z,72.47
2022-12-27T23:04:45.672Z,69.57
2022-12-27T23:08:04.961Z,71.15
2022-12-27T23:10:38.231Z,70.97
2022-12-27T23:13:24.888Z,71.82
2022-12-27T23:16:11.138Z,69.75
2022-12-27T23:18:56.849Z,71.47
2022-12-27T23:21:44.540Z,71.80
2022-12-27T23:24:30.189Z,70.57
2022-12-27T23:27:15.448Z,69.93
2022-12-27T23:30:01.271Z,69.43
2022-12-27T23:32:46.928Z,72.30
2022-12-27T23:35:32.819Z,70.65
2022-12-27T23:38:18.610Z,64.70
2022-12-27T23:41:06.709Z,66.45
2022-12-27T23:43:55.323Z,65.22
2022-12-27T23:46:41.737Z,56.13
2022-12-27T23:49:27.494Z,55.30
2022-12-27T23:52:13.101Z,52.88
2022-12-27T23:54:58.829Z,52.60
2022-12-27T23:57:44.509Z,55.00
